sensor_id;sensor_type;location;lat;lon;timestamp;P1;durP1;ratioP1;P2;durP2;ratioP2
69253;SDS011;56364;41.816;12.448;2023-09-07T00:01:50;11.02;;;4.47;;
69253;SDS011;56364;41.816;12.448;2023-09-07T00:04:18;9.10;;;5.00;;
69253;SDS011;56364;41.816;12.448;2023-09-07T00:06:44;8.27;;;4.38;;
69253;SDS011;56364;41.816;12.448;2023-09-07T00:09:10;11.20;;;4.90;;
69253;SDS011;56364;41.816;12.448;2023-09-07T00:11:38;8.07;;;4.55;;
69253;SDS011;56364;41.816;12.448;2023-09-07T00:14:04;9.38;;;4.50;;
69253;SDS011;56364;41.816;12.448;2023-09-07T00:16:31;8.82;;;4.50;;
69253;SDS011;56364;41.816;12.448;2023-09-07T00:19:09;8.10;;;4.68;;
69253;SDS011;56364;41.816;12.448;2023-09-07T00:21:36;13.68;;;4.55;;
69253;SDS011;56364;41.816;12.448;2023-09-07T00:24:02;9.52;;;4.70;;
69253;SDS011;56364;41.816;12.448;2023-09-07T00:26:30;9.90;;;5.20;;
69253;SDS011;56364;41.816;12.448;2023-09-07T00:28:56;9.43;;;5.13;;
69253;SDS011;56364;41.816;12.448;2023-09-07T00:31:22;15.63;;;5.82;;
69253;SDS011;56364;41.816;12.448;2023-09-07T00:33:48;12.80;;;6.10;;
69253;SDS011;56364;41.816;12.448;2023-09-07T00:36:14;12.13;;;5.30;;
69253;SDS011;56364;41.816;12.448;2023-09-07T00:54:15;16.38;;;5.85;;
69253;SDS011;56364;41.816;12.448;2023-09-07T00:59:17;10.35;;;5.60;;
69253;SDS011;56364;41.816;12.448;2023-09-07T01:01:43;12.85;;;5.25;;
69253;SDS011;56364;41.816;12.448;2023-09-07T01:04:09;10.40;;;5.13;;
69253;SDS011;56364;41.816;12.448;2023-09-07T01:06:46;15.32;;;5.70;;
69253;SDS011;56364;41.816;12.448;2023-09-07T01:09:14;12.45;;;5.20;;
69253;SDS011;56364;41.816;12.448;2023-09-07T01:12:02;13.35;;;4.88;;
69253;SDS011;56364;41.816;12.448;2023-09-07T01:27:28;8.30;;;3.85;;
69253;SDS011;56364;41.816;12.448;2023-09-07T01:29:56;7.15;;;4.15;;
69253;SDS011;56364;41.816;12.448;2023-09-07T01:32:23;7.07;;;4.05;;
69253;SDS011;56364;41.816;12.448;2023-09-07T01:34:50;7.28;;;3.67;;
69253;SDS011;56364;41.816;12.448;2023-09-07T01:37:17;8.05;;;4.07;;
69253;SDS011;56364;41.816;12.448;2023-09-07T01:39:43;8.65;;;4.32;;
69253;SDS011;56364;41.816;12.448;2023-09-07T01:42:09;8.90;;;4.35;;
69253;SDS011;56364;41.816;12.448;2023-09-07T01:44:35;7.95;;;4.15;;
69253;SDS011;56364;41.816;12.448;2023-09-07T01:47:03;7.50;;;4.00;;
69253;SDS011;56364;41.816;12.448;2023-09-07T01:49:29;8.70;;;4.47;;
69253;SDS011;56364;41.816;12.448;2023-09-07T01:51:55;8.23;;;3.83;;
69253;SDS011;56364;41.816;12.448;2023-09-07T01:54:21;8.68;;;3.53;;
69253;SDS011;56364;41.816;12.448;2023-09-07T01:56:47;8.25;;;4.10;;
69253;SDS011;56364;41.816;12.448;2023-09-07T01:59:13;8.00;;;4.25;;
69253;SDS011;56364;41.816;12.448;2023-09-07T02:01:39;13.07;;;4.80;;
69253;SDS011;56364;41.816;12.448;2023-09-07T02:04:05;9.57;;;3.97;;
69253;SDS011;56364;41.816;12.448;2023-09-07T02:06:31;8.38;;;4.15;;
69253;SDS011;56364;41.816;12.448;2023-09-07T02:08:58;10.82;;;3.92;;
69253;SDS011;56364;41.816;12.448;2023-09-07T02:11:24;10.02;;;4.00;;
69253;SDS011;56364;41.816;12.448;2023-09-07T02:13:49;9.18;;;4.15;;
69253;SDS011;56364;41.816;12.448;2023-09-07T02:16:15;8.77;;;3.85;;
69253;SDS011;56364;41.816;12.448;2023-09-07T02:18:43;7.20;;;4.03;;
69253;SDS011;56364;41.816;12.448;2023-09-07T02:21:11;7.07;;;3.65;;
69253;SDS011;56364;41.816;12.448;2023-09-07T02:23:37;10.63;;;3.85;;
69253;SDS011;56364;41.816;12.448;2023-09-07T02:26:03;8.27;;;3.65;;
69253;SDS011;56364;41.816;12.448;2023-09-07T02:28:29;7.07;;;3.78;;
69253;SDS011;56364;41.816;12.448;2023-09-07T02:31:01;7.20;;;3.65;;
69253;SDS011;56364;41.816;12.448;2023-09-07T02:33:27;7.65;;;3.60;;
69253;SDS011;56364;41.816;12.448;2023-09-07T02:35:53;6.78;;;3.88;;
69253;SDS011;56364;41.816;12.448;2023-09-07T02:38:38;10.85;;;3.90;;
69253;SDS011;56364;41.816;12.448;2023-09-07T02:41:04;7.50;;;3.90;;
69253;SDS011;56364;41.816;12.448;2023-09-07T02:43:30;6.20;;;3.20;;
69253;SDS011;56364;41.816;12.448;2023-09-07T02:45:56;5.93;;;3.17;;
69253;SDS011;56364;41.816;12.448;2023-09-07T02:48:22;6.10;;;3.25;;
69253;SDS011;56364;41.816;12.448;2023-09-07T02:50:49;6.78;;;3.65;;
69253;SDS011;56364;41.816;12.448;2023-09-07T02:53:16;6.53;;;3.53;;
69253;SDS011;56364;41.816;12.448;2023-09-07T02:55:42;6.45;;;3.08;;
69253;SDS011;56364;41.816;12.448;2023-09-07T02:58:08;10.50;;;3.13;;
69253;SDS011;56364;41.816;12.448;2023-09-07T03:00:34;8.73;;;3.13;;
69253;SDS011;56364;41.816;12.448;2023-09-07T03:03:01;6.90;;;3.42;;
69253;SDS011;56364;41.816;12.448;2023-09-07T03:05:28;4.15;;;2.63;;
69253;SDS011;56364;41.816;12.448;2023-09-07T03:07:54;5.93;;;3.33;;
69253;SDS011;56364;41.816;12.448;2023-09-07T03:10:20;5.43;;;3.28;;
69253;SDS011;56364;41.816;12.448;2023-09-07T03:12:46;7.53;;;3.30;;
69253;SDS011;56364;41.816;12.448;2023-09-07T03:15:12;6.43;;;3.15;;
69253;SDS011;56364;41.816;12.448;2023-09-07T03:17:38;7.50;;;3.08;;
69253;SDS011;56364;41.816;12.448;2023-09-07T03:20:04;5.97;;;3.30;;
69253;SDS011;56364;41.816;12.448;2023-09-07T03:22:39;6.40;;;3.63;;
69253;SDS011;56364;41.816;12.448;2023-09-07T03:25:06;6.22;;;2.88;;
69253;SDS011;56364;41.816;12.448;2023-09-07T03:27:32;6.32;;;3.72;;
69253;SDS011;56364;41.816;12.448;2023-09-07T03:29:58;7.45;;;3.65;;
69253;SDS011;56364;41.816;12.448;2023-09-07T03:32:24;6.95;;;3.05;;
69253;SDS011;56364;41.816;12.448;2023-09-07T03:34:53;6.53;;;3.42;;
69253;SDS011;56364;41.816;12.448;2023-09-07T03:37:19;6.25;;;3.42;;
69253;SDS011;56364;41.816;12.448;2023-09-07T03:39:46;6.00;;;3.45;;
69253;SDS011;56364;41.816;12.448;2023-09-07T03:42:12;5.47;;;2.90;;
69253;SDS011;56364;41.816;12.448;2023-09-07T03:44:38;8.57;;;3.13;;
69253;SDS011;56364;41.816;12.448;2023-09-07T03:47:04;6.97;;;3.30;;
69253;SDS011;56364;41.816;12.448;2023-09-07T03:49:30;7.03;;;3.03;;
69253;SDS011;56364;41.816;12.448;2023-09-07T03:51:56;6.65;;;3.30;;
69253;SDS011;56364;41.816;12.448;2023-09-07T03:54:22;6.50;;;3.35;;
69253;SDS011;56364;41.816;12.448;2023-09-07T03:56:48;7.43;;;3.63;;
69253;SDS011;56364;41.816;12.448;2023-09-07T03:59:14;5.55;;;3.38;;
69253;SDS011;56364;41.816;12.448;2023-09-07T04:01:41;6.72;;;3.15;;
69253;SDS011;56364;41.816;12.448;2023-09-07T04:04:07;9.70;;;3.83;;
69253;SDS011;56364;41.816;12.448;2023-09-07T04:06:33;7.20;;;3.30;;
69253;SDS011;56364;41.816;12.448;2023-09-07T04:08:59;9.82;;;3.70;;
69253;SDS011;56364;41.816;12.448;2023-09-07T04:11:25;7.97;;;3.60;;
69253;SDS011;56364;41.816;12.448;2023-09-07T04:13:51;5.47;;;3.05;;
69253;SDS011;56364;41.816;12.448;2023-09-07T04:16:17;7.38;;;3.40;;
69253;SDS011;56364;41.816;12.448;2023-09-07T04:18:43;6.25;;;3.55;;
69253;SDS011;56364;41.816;12.448;2023-09-07T04:21:09;7.80;;;2.92;;
69253;SDS011;56364;41.816;12.448;2023-09-07T04:23:35;6.93;;;3.17;;
69253;SDS011;56364;41.816;12.448;2023-09-07T04:26:08;4.88;;;2.70;;
69253;SDS011;56364;41.816;12.448;2023-09-07T04:28:34;6.20;;;3.00;;
69253;SDS011;56364;41.816;12.448;2023-09-07T04:31:01;6.05;;;3.28;;
69253;SDS011;56364;41.816;12.448;2023-09-07T04:33:29;8.40;;;3.05;;
69253;SDS011;56364;41.816;12.448;2023-09-07T04:35:56;6.43;;;3.15;;
69253;SDS011;56364;41.816;12.448;2023-09-07T04:38:22;7.35;;;3.13;;
69253;SDS011;56364;41.816;12.448;2023-09-07T04:40:48;5.28;;;2.60;;
69253;SDS011;56364;41.816;12.448;2023-09-07T04:43:14;5.95;;;3.15;;
69253;SDS011;56364;41.816;12.448;2023-09-07T04:45:46;5.32;;;2.80;;
69253;SDS011;56364;41.816;12.448;2023-09-07T04:48:12;7.18;;;2.90;;
69253;SDS011;56364;41.816;12.448;2023-09-07T04:50:38;5.50;;;2.50;;
69253;SDS011;56364;41.816;12.448;2023-09-07T04:53:04;5.53;;;3.05;;
69253;SDS011;56364;41.816;12.448;2023-09-07T04:55:30;5.95;;;2.80;;
69253;SDS011;56364;41.816;12.448;2023-09-07T04:57:56;7.32;;;2.72;;
69253;SDS011;56364;41.816;12.448;2023-09-07T05:00:22;5.15;;;2.72;;
69253;SDS011;56364;41.816;12.448;2023-09-07T05:02:48;4.88;;;2.70;;
69253;SDS011;56364;41.816;12.448;2023-09-07T05:05:14;7.95;;;3.22;;
69253;SDS011;56364;41.816;12.448;2023-09-07T05:07:40;6.15;;;3.08;;
69253;SDS011;56364;41.816;12.448;2023-09-07T05:10:07;6.28;;;2.58;;
69253;SDS011;56364;41.816;12.448;2023-09-07T05:12:33;5.25;;;2.90;;
69253;SDS011;56364;41.816;12.448;2023-09-07T05:14:59;6.93;;;2.95;;
69253;SDS011;56364;41.816;12.448;2023-09-07T05:17:25;5.88;;;2.88;;
69253;SDS011;56364;41.816;12.448;2023-09-07T05:19:51;8.15;;;3.05;;
69253;SDS011;56364;41.816;12.448;2023-09-07T05:22:20;5.20;;;2.67;;
69253;SDS011;56364;41.816;12.448;2023-09-07T05:24:47;9.98;;;3.13;;
69253;SDS011;56364;41.816;12.448;2023-09-07T05:27:13;6.65;;;3.20;;
69253;SDS011;56364;41.816;12.448;2023-09-07T05:29:39;11.02;;;3.00;;
69253;SDS011;56364;41.816;12.448;2023-09-07T05:32:09;5.15;;;2.60;;
69253;SDS011;56364;41.816;12.448;2023-09-07T05:34:35;6.90;;;3.25;;
69253;SDS011;56364;41.816;12.448;2023-09-07T05:39:40;8.75;;;3.10;;
69253;SDS011;56364;41.816;12.448;2023-09-07T05:42:06;9.52;;;3.03;;
69253;SDS011;56364;41.816;12.448;2023-09-07T05:44:32;8.40;;;3.35;;
69253;SDS011;56364;41.816;12.448;2023-09-07T05:46:58;8.32;;;2.83;;
69253;SDS011;56364;41.816;12.448;2023-09-07T05:49:24;12.73;;;3.70;;
69253;SDS011;56364;41.816;12.448;2023-09-07T05:51:50;14.30;;;3.70;;
69253;SDS011;56364;41.816;12.448;2023-09-07T05:54:16;6.30;;;2.72;;
69253;SDS011;56364;41.816;12.448;2023-09-07T05:56:43;8.73;;;3.03;;
69253;SDS011;56364;41.816;12.448;2023-09-07T05:59:09;9.80;;;2.97;;
69253;SDS011;56364;41.816;12.448;2023-09-07T06:01:39;5.90;;;3.05;;
69253;SDS011;56364;41.816;12.448;2023-09-07T06:04:06;6.82;;;2.92;;
69253;SDS011;56364;41.816;12.448;2023-09-07T06:06:39;8.35;;;3.22;;
69253;SDS011;56364;41.816;12.448;2023-09-07T06:09:10;12.63;;;3.95;;
69253;SDS011;56364;41.816;12.448;2023-09-07T06:11:45;11.55;;;2.95;;
69253;SDS011;56364;41.816;12.448;2023-09-07T06:14:11;17.92;;;3.45;;
69253;SDS011;56364;41.816;12.448;2023-09-07T06:16:37;7.15;;;3.83;;
69253;SDS011;56364;41.816;12.448;2023-09-07T06:19:05;39.55;;;5.30;;
69253;SDS011;56364;41.816;12.448;2023-09-07T06:21:32;61.35;;;7.35;;
69253;SDS011;56364;41.816;12.448;2023-09-07T06:23:58;37.20;;;5.20;;
69253;SDS011;56364;41.816;12.448;2023-09-07T06:26:24;18.67;;;3.83;;
69253;SDS011;56364;41.816;12.448;2023-09-07T06:28:50;14.57;;;3.35;;
69253;SDS011;56364;41.816;12.448;2023-09-07T06:31:16;10.70;;;3.03;;
69253;SDS011;56364;41.816;12.448;2023-09-07T06:33:42;7.93;;;3.30;;
69253;SDS011;56364;41.816;12.448;2023-09-07T06:36:09;21.05;;;3.10;;
69253;SDS011;56364;41.816;12.448;2023-09-07T06:38:42;9.13;;;3.33;;
69253;SDS011;56364;41.816;12.448;2023-09-07T06:41:08;15.20;;;3.35;;
69253;SDS011;56364;41.816;12.448;2023-09-07T06:43:35;4.53;;;2.90;;
69253;SDS011;56364;41.816;12.448;2023-09-07T06:46:02;9.52;;;3.13;;
69253;SDS011;56364;41.816;12.448;2023-09-07T06:48:28;32.38;;;4.43;;
69253;SDS011;56364;41.816;12.448;2023-09-07T06:50:54;104.40;;;12.13;;
69253;SDS011;56364;41.816;12.448;2023-09-07T06:53:20;17.65;;;3.75;;
69253;SDS011;56364;41.816;12.448;2023-09-07T06:55:46;19.73;;;3.20;;
69253;SDS011;56364;41.816;12.448;2023-09-07T07:13:47;9.20;;;3.60;;
69253;SDS011;56364;41.816;12.448;2023-09-07T07:16:13;8.70;;;3.45;;
69253;SDS011;56364;41.816;12.448;2023-09-07T07:34:14;9.25;;;2.90;;
69253;SDS011;56364;41.816;12.448;2023-09-07T07:36:40;6.28;;;2.90;;
69253;SDS011;56364;41.816;12.448;2023-09-07T07:39:06;8.73;;;2.78;;
69253;SDS011;56364;41.816;12.448;2023-09-07T07:41:32;18.52;;;3.25;;
69253;SDS011;56364;41.816;12.448;2023-09-07T07:43:59;10.32;;;3.05;;
69253;SDS011;56364;41.816;12.448;2023-09-07T07:46:26;9.13;;;3.13;;
69253;SDS011;56364;41.816;12.448;2023-09-07T07:48:52;5.55;;;2.63;;
69253;SDS011;56364;41.816;12.448;2023-09-07T07:51:33;13.10;;;3.50;;
69253;SDS011;56364;41.816;12.448;2023-09-07T07:54:23;10.30;;;3.13;;
69253;SDS011;56364;41.816;12.448;2023-09-07T07:57:02;6.45;;;2.72;;
69253;SDS011;56364;41.816;12.448;2023-09-07T08:10:19;6.07;;;2.85;;
69253;SDS011;56364;41.816;12.448;2023-09-07T08:12:45;19.15;;;3.33;;
69253;SDS011;56364;41.816;12.448;2023-09-07T08:15:12;9.98;;;3.47;;
69253;SDS011;56364;41.816;12.448;2023-09-07T08:17:39;16.90;;;3.65;;
69253;SDS011;56364;41.816;12.448;2023-09-07T08:20:05;8.35;;;3.10;;
69253;SDS011;56364;41.816;12.448;2023-09-07T08:22:33;14.60;;;3.33;;
69253;SDS011;56364;41.816;12.448;2023-09-07T08:25:04;10.65;;;3.67;;
69253;SDS011;56364;41.816;12.448;2023-09-07T08:32:42;15.90;;;3.63;;
69253;SDS011;56364;41.816;12.448;2023-09-07T08:35:12;10.25;;;3.38;;
69253;SDS011;56364;41.816;12.448;2023-09-07T08:37:39;20.92;;;4.90;;
69253;SDS011;56364;41.816;12.448;2023-09-07T08:40:05;34.75;;;4.40;;
69253;SDS011;56364;41.816;12.448;2023-09-07T08:42:36;18.38;;;4.00;;
69253;SDS011;56364;41.816;12.448;2023-09-07T08:45:02;9.70;;;3.15;;
69253;SDS011;56364;41.816;12.448;2023-09-07T08:47:35;7.18;;;2.85;;
69253;SDS011;56364;41.816;12.448;2023-09-07T08:50:02;16.27;;;3.60;;
69253;SDS011;56364;41.816;12.448;2023-09-07T08:52:28;17.73;;;3.30;;
69253;SDS011;56364;41.816;12.448;2023-09-07T08:57:30;15.23;;;3.97;;
69253;SDS011;56364;41.816;12.448;2023-09-07T08:59:57;8.65;;;2.83;;
69253;SDS011;56364;41.816;12.448;2023-09-07T09:02:24;7.38;;;3.08;;
69253;SDS011;56364;41.816;12.448;2023-09-07T09:04:51;14.07;;;2.97;;
69253;SDS011;56364;41.816;12.448;2023-09-07T09:07:17;14.63;;;3.33;;
69253;SDS011;56364;41.816;12.448;2023-09-07T09:09:43;21.20;;;3.95;;
69253;SDS011;56364;41.816;12.448;2023-09-07T09:12:12;11.93;;;3.72;;
69253;SDS011;56364;41.816;12.448;2023-09-07T09:14:41;15.10;;;3.28;;
69253;SDS011;56364;41.816;12.448;2023-09-07T09:17:11;16.88;;;3.92;;
69253;SDS011;56364;41.816;12.448;2023-09-07T09:35:25;13.07;;;4.60;;
69253;SDS011;56364;41.816;12.448;2023-09-07T10:09:55;5.60;;;3.60;;
69253;SDS011;56364;41.816;12.448;2023-09-07T10:15:06;9.20;;;3.30;;
69253;SDS011;56364;41.816;12.448;2023-09-07T10:20:14;7.93;;;3.50;;
69253;SDS011;56364;41.816;12.448;2023-09-07T10:22:40;8.90;;;3.42;;
69253;SDS011;56364;41.816;12.448;2023-09-07T10:38:13;7.30;;;3.80;;
69253;SDS011;56364;41.816;12.448;2023-09-07T10:40:39;9.88;;;3.03;;
69253;SDS011;56364;41.816;12.448;2023-09-07T10:43:08;7.22;;;3.60;;
69253;SDS011;56364;41.816;12.448;2023-09-07T10:45:34;8.73;;;4.10;;
69253;SDS011;56364;41.816;12.448;2023-09-07T10:48:01;7.00;;;3.53;;
69253;SDS011;56364;41.816;12.448;2023-09-07T10:50:41;5.88;;;3.10;;
69253;SDS011;56364;41.816;12.448;2023-09-07T10:53:14;4.45;;;2.97;;
69253;SDS011;56364;41.816;12.448;2023-09-07T10:55:50;8.63;;;3.33;;
69253;SDS011;56364;41.816;12.448;2023-09-07T11:01:13;7.60;;;3.25;;
69253;SDS011;56364;41.816;12.448;2023-09-07T11:15:16;6.93;;;3.65;;
69253;SDS011;56364;41.816;12.448;2023-09-07T11:23:32;6.78;;;3.58;;
69253;SDS011;56364;41.816;12.448;2023-09-07T11:34:00;5.93;;;3.50;;
69253;SDS011;56364;41.816;12.448;2023-09-07T11:36:26;7.03;;;3.40;;
69253;SDS011;56364;41.816;12.448;2023-09-07T11:38:53;8.05;;;3.42;;
69253;SDS011;56364;41.816;12.448;2023-09-07T11:41:25;13.00;;;3.63;;
69253;SDS011;56364;41.816;12.448;2023-09-07T11:44:04;10.10;;;3.55;;
69253;SDS011;56364;41.816;12.448;2023-09-07T11:46:30;6.35;;;3.05;;
69253;SDS011;56364;41.816;12.448;2023-09-07T11:48:56;9.48;;;3.30;;
69253;SDS011;56364;41.816;12.448;2023-09-07T11:51:25;8.95;;;3.35;;
69253;SDS011;56364;41.816;12.448;2023-09-07T11:53:54;6.22;;;2.80;;
69253;SDS011;56364;41.816;12.448;2023-09-07T11:59:03;14.77;;;3.30;;
69253;SDS011;56364;41.816;12.448;2023-09-07T12:01:32;11.32;;;3.55;;
69253;SDS011;56364;41.816;12.448;2023-09-07T12:04:00;11.57;;;2.83;;
69253;SDS011;56364;41.816;12.448;2023-09-07T12:06:26;8.80;;;3.35;;
69253;SDS011;56364;41.816;12.448;2023-09-07T12:09:00;6.57;;;2.70;;
69253;SDS011;56364;41.816;12.448;2023-09-07T12:11:26;7.70;;;3.03;;
69253;SDS011;56364;41.816;12.448;2023-09-07T12:13:52;6.40;;;3.03;;
69253;SDS011;56364;41.816;12.448;2023-09-07T12:16:45;6.00;;;2.95;;
69253;SDS011;56364;41.816;12.448;2023-09-07T12:34:48;4.78;;;2.90;;
69253;SDS011;56364;41.816;12.448;2023-09-07T12:39:56;4.85;;;2.92;;
69253;SDS011;56364;41.816;12.448;2023-09-07T12:42:30;4.55;;;2.75;;
69253;SDS011;56364;41.816;12.448;2023-09-07T12:44:56;8.35;;;3.33;;
69253;SDS011;56364;41.816;12.448;2023-09-07T12:47:23;6.55;;;2.88;;
69253;SDS011;56364;41.816;12.448;2023-09-07T12:49:49;6.13;;;3.17;;
69253;SDS011;56364;41.816;12.448;2023-09-07T12:52:15;5.18;;;2.88;;
69253;SDS011;56364;41.816;12.448;2023-09-07T12:54:50;4.50;;;2.70;;
69253;SDS011;56364;41.816;12.448;2023-09-07T13:16:11;7.90;;;3.30;;
69253;SDS011;56364;41.816;12.448;2023-09-07T13:18:38;5.78;;;3.00;;
69253;SDS011;56364;41.816;12.448;2023-09-07T13:21:09;4.32;;;3.03;;
69253;SDS011;56364;41.816;12.448;2023-09-07T13:23:35;5.75;;;3.13;;
69253;SDS011;56364;41.816;12.448;2023-09-07T13:26:02;6.63;;;3.13;;
69253;SDS011;56364;41.816;12.448;2023-09-07T13:28:31;4.43;;;3.17;;
69253;SDS011;56364;41.816;12.448;2023-09-07T13:31:00;8.68;;;3.67;;
69253;SDS011;56364;41.816;12.448;2023-09-07T13:33:27;6.53;;;4.32;;
69253;SDS011;56364;41.816;12.448;2023-09-07T13:35:54;6.22;;;3.88;;
69253;SDS011;56364;41.816;12.448;2023-09-07T13:48:57;4.75;;;2.70;;
69253;SDS011;56364;41.816;12.448;2023-09-07T13:51:47;6.00;;;2.60;;
69253;SDS011;56364;41.816;12.448;2023-09-07T13:54:39;8.70;;;2.80;;
69253;SDS011;56364;41.816;12.448;2023-09-07T13:57:10;12.00;;;4.40;;
69253;SDS011;56364;41.816;12.448;2023-09-07T13:59:36;5.55;;;3.22;;
69253;SDS011;56364;41.816;12.448;2023-09-07T14:04:40;9.70;;;4.28;;
69253;SDS011;56364;41.816;12.448;2023-09-07T14:07:16;7.18;;;3.58;;
69253;SDS011;56364;41.816;12.448;2023-09-07T14:09:54;6.10;;;3.92;;
69253;SDS011;56364;41.816;12.448;2023-09-07T14:14:54;5.22;;;3.45;;
69253;SDS011;56364;41.816;12.448;2023-09-07T14:17:20;5.95;;;3.53;;
69253;SDS011;56364;41.816;12.448;2023-09-07T14:19:49;7.75;;;3.63;;
69253;SDS011;56364;41.816;12.448;2023-09-07T14:22:15;5.95;;;3.40;;
69253;SDS011;56364;41.816;12.448;2023-09-07T14:24:41;5.40;;;3.30;;
69253;SDS011;56364;41.816;12.448;2023-09-07T14:27:07;6.45;;;3.83;;
69253;SDS011;56364;41.816;12.448;2023-09-07T14:29:34;6.22;;;3.33;;
69253;SDS011;56364;41.816;12.448;2023-09-07T14:32:01;8.75;;;3.83;;
69253;SDS011;56364;41.816;12.448;2023-09-07T14:34:31;8.65;;;3.88;;
69253;SDS011;56364;41.816;12.448;2023-09-07T14:36:58;5.68;;;3.08;;
69253;SDS011;56364;41.816;12.448;2023-09-07T14:52:23;7.63;;;3.65;;
69253;SDS011;56364;41.816;12.448;2023-09-07T14:54:56;5.93;;;3.25;;
69253;SDS011;56364;41.816;12.448;2023-09-07T14:57:24;6.05;;;3.40;;
69253;SDS011;56364;41.816;12.448;2023-09-07T14:59:52;8.50;;;4.10;;
69253;SDS011;56364;41.816;12.448;2023-09-07T15:02:18;7.70;;;3.30;;
69253;SDS011;56364;41.816;12.448;2023-09-07T15:04:44;13.38;;;3.42;;
69253;SDS011;56364;41.816;12.448;2023-09-07T15:07:10;6.05;;;3.10;;
69253;SDS011;56364;41.816;12.448;2023-09-07T15:09:37;10.00;;;3.15;;
69253;SDS011;56364;41.816;12.448;2023-09-07T15:12:03;9.38;;;3.10;;
69253;SDS011;56364;41.816;12.448;2023-09-07T15:14:29;7.65;;;3.05;;
69253;SDS011;56364;41.816;12.448;2023-09-07T15:16:55;9.38;;;3.47;;
69253;SDS011;56364;41.816;12.448;2023-09-07T15:19:26;7.30;;;3.60;;
69253;SDS011;56364;41.816;12.448;2023-09-07T15:21:59;5.95;;;3.17;;
69253;SDS011;56364;41.816;12.448;2023-09-07T15:24:25;10.63;;;3.58;;
69253;SDS011;56364;41.816;12.448;2023-09-07T15:26:51;5.47;;;3.30;;
69253;SDS011;56364;41.816;12.448;2023-09-07T15:29:17;7.05;;;3.30;;
69253;SDS011;56364;41.816;12.448;2023-09-07T15:31:47;7.18;;;3.30;;
69253;SDS011;56364;41.816;12.448;2023-09-07T15:36:54;6.00;;;3.38;;
69253;SDS011;56364;41.816;12.448;2023-09-07T15:39:55;11.82;;;3.20;;
69253;SDS011;56364;41.816;12.448;2023-09-07T15:42:22;4.50;;;2.90;;
69253;SDS011;56364;41.816;12.448;2023-09-07T15:52:43;5.82;;;2.70;;
69253;SDS011;56364;41.816;12.448;2023-09-07T15:55:16;6.28;;;3.33;;
69253;SDS011;56364;41.816;12.448;2023-09-07T16:00:14;10.88;;;3.45;;
69253;SDS011;56364;41.816;12.448;2023-09-07T16:02:48;5.97;;;2.97;;
69253;SDS011;56364;41.816;12.448;2023-09-07T16:05:21;6.22;;;2.67;;
69253;SDS011;56364;41.816;12.448;2023-09-07T16:07:53;4.63;;;3.25;;
69253;SDS011;56364;41.816;12.448;2023-09-07T16:10:19;5.55;;;3.20;;
69253;SDS011;56364;41.816;12.448;2023-09-07T16:12:55;6.57;;;2.75;;
69253;SDS011;56364;41.816;12.448;2023-09-07T16:15:22;4.25;;;2.85;;
69253;SDS011;56364;41.816;12.448;2023-09-07T16:17:50;6.28;;;2.95;;
69253;SDS011;56364;41.816;12.448;2023-09-07T16:20:16;4.93;;;2.67;;
69253;SDS011;56364;41.816;12.448;2023-09-07T16:22:45;8.65;;;3.38;;
69253;SDS011;56364;41.816;12.448;2023-09-07T16:25:11;5.65;;;2.90;;
69253;SDS011;56364;41.816;12.448;2023-09-07T16:27:37;5.80;;;2.92;;
69253;SDS011;56364;41.816;12.448;2023-09-07T16:30:06;5.47;;;2.97;;
69253;SDS011;56364;41.816;12.448;2023-09-07T16:32:33;6.15;;;2.53;;
69253;SDS011;56364;41.816;12.448;2023-09-07T16:34:59;7.15;;;2.97;;
69253;SDS011;56364;41.816;12.448;2023-09-07T16:37:27;4.40;;;2.90;;
69253;SDS011;56364;41.816;12.448;2023-09-07T16:40:01;5.07;;;2.80;;
69253;SDS011;56364;41.816;12.448;2023-09-07T16:42:35;4.88;;;3.17;;
69253;SDS011;56364;41.816;12.448;2023-09-07T16:45:01;7.00;;;2.90;;
69253;SDS011;56364;41.816;12.448;2023-09-07T16:47:31;4.65;;;3.00;;
69253;SDS011;56364;41.816;12.448;2023-09-07T16:50:00;7.82;;;3.10;;
69253;SDS011;56364;41.816;12.448;2023-09-07T16:52:29;7.43;;;3.17;;
69253;SDS011;56364;41.816;12.448;2023-09-07T16:54:57;5.40;;;2.42;;
69253;SDS011;56364;41.816;12.448;2023-09-07T17:00:02;12.00;;;2.78;;
69253;SDS011;56364;41.816;12.448;2023-09-07T17:05:03;8.00;;;3.30;;
69253;SDS011;56364;41.816;12.448;2023-09-07T17:07:32;4.03;;;2.53;;
69253;SDS011;56364;41.816;12.448;2023-09-07T17:09:58;4.85;;;2.47;;
69253;SDS011;56364;41.816;12.448;2023-09-07T17:12:24;8.98;;;3.05;;
69253;SDS011;56364;41.816;12.448;2023-09-07T17:15:07;4.72;;;3.03;;
69253;SDS011;56364;41.816;12.448;2023-09-07T17:25:14;5.22;;;2.42;;
69253;SDS011;56364;41.816;12.448;2023-09-07T17:27:44;4.03;;;2.38;;
69253;SDS011;56364;41.816;12.448;2023-09-07T17:30:10;5.57;;;2.80;;
69253;SDS011;56364;41.816;12.448;2023-09-07T17:32:58;8.00;;;2.60;;
69253;SDS011;56364;41.816;12.448;2023-09-07T17:35:27;5.22;;;2.60;;
69253;SDS011;56364;41.816;12.448;2023-09-07T17:37:54;5.72;;;2.28;;
69253;SDS011;56364;41.816;12.448;2023-09-07T17:40:20;5.38;;;2.58;;
69253;SDS011;56364;41.816;12.448;2023-09-07T17:42:48;9.27;;;2.63;;
69253;SDS011;56364;41.816;12.448;2023-09-07T17:50:29;6.30;;;2.60;;
69253;SDS011;56364;41.816;12.448;2023-09-07T17:52:58;7.82;;;2.97;;
69253;SDS011;56364;41.816;12.448;2023-09-07T17:58:07;5.75;;;2.47;;
69253;SDS011;56364;41.816;12.448;2023-09-07T18:00:38;9.63;;;2.90;;
69253;SDS011;56364;41.816;12.448;2023-09-07T18:03:04;8.52;;;2.45;;
69253;SDS011;56364;41.816;12.448;2023-09-07T18:05:43;4.88;;;2.60;;
69253;SDS011;56364;41.816;12.448;2023-09-07T18:08:09;11.00;;;3.35;;
69253;SDS011;56364;41.816;12.448;2023-09-07T18:18:36;6.00;;;2.60;;
69253;SDS011;56364;41.816;12.448;2023-09-07T18:21:03;8.10;;;3.10;;
69253;SDS011;56364;41.816;12.448;2023-09-07T18:23:39;5.53;;;2.50;;
69253;SDS011;56364;41.816;12.448;2023-09-07T18:26:17;7.90;;;2.75;;
69253;SDS011;56364;41.816;12.448;2023-09-07T18:34:03;6.15;;;2.42;;
69253;SDS011;56364;41.816;12.448;2023-09-07T18:36:31;6.57;;;2.90;;
69253;SDS011;56364;41.816;12.448;2023-09-07T18:38:57;6.18;;;2.95;;
69253;SDS011;56364;41.816;12.448;2023-09-07T18:41:23;6.28;;;2.67;;
69253;SDS011;56364;41.816;12.448;2023-09-07T18:43:49;6.32;;;2.45;;
69253;SDS011;56364;41.816;12.448;2023-09-07T18:46:15;4.22;;;2.42;;
69253;SDS011;56364;41.816;12.448;2023-09-07T18:51:16;16.13;;;4.22;;
69253;SDS011;56364;41.816;12.448;2023-09-07T18:53:42;11.55;;;4.68;;
69253;SDS011;56364;41.816;12.448;2023-09-07T18:56:10;16.00;;;4.15;;
69253;SDS011;56364;41.816;12.448;2023-09-07T18:58:36;9.20;;;3.22;;
69253;SDS011;56364;41.816;12.448;2023-09-07T19:01:16;16.63;;;6.63;;
69253;SDS011;56364;41.816;12.448;2023-09-07T19:03:49;5.47;;;3.10;;
69253;SDS011;56364;41.816;12.448;2023-09-07T19:06:15;8.27;;;3.58;;
69253;SDS011;56364;41.816;12.448;2023-09-07T19:08:41;9.60;;;3.30;;
69253;SDS011;56364;41.816;12.448;2023-09-07T19:11:11;18.20;;;6.38;;
69253;SDS011;56364;41.816;12.448;2023-09-07T19:13:40;19.77;;;8.43;;
69253;SDS011;56364;41.816;12.448;2023-09-07T19:16:09;14.85;;;6.68;;
69253;SDS011;56364;41.816;12.448;2023-09-07T19:18:36;20.50;;;8.57;;
69253;SDS011;56364;41.816;12.448;2023-09-07T19:21:02;12.82;;;5.55;;
69253;SDS011;56364;41.816;12.448;2023-09-07T19:23:28;13.30;;;6.00;;
69253;SDS011;56364;41.816;12.448;2023-09-07T19:25:54;17.80;;;7.70;;
69253;SDS011;56364;41.816;12.448;2023-09-07T19:28:20;12.95;;;5.93;;
69253;SDS011;56364;41.816;12.448;2023-09-07T19:30:46;9.63;;;3.45;;
69253;SDS011;56364;41.816;12.448;2023-09-07T19:33:12;10.77;;;4.97;;